sensor_id;sensor_type;location;lat;lon;timestamp;P1;durP1;ratioP1;P2;durP2;ratioP2
84500;SDS011;74725;44.210;17.906;2024-01-30T02:06:57;59.35;;;27.20;;
84500;SDS011;74725;44.210;17.906;2024-01-30T05:23:19;63.15;;;31.50;;
84500;SDS011;74725;44.210;17.906;2024-01-30T05:25:44;60.35;;;31.17;;
84500;SDS011;74725;44.210;17.906;2024-01-30T05:28:10;60.47;;;28.95;;
84500;SDS011;74725;44.210;17.906;2024-01-30T06:13:47;77.55;;;35.80;;
84500;SDS011;74725;44.210;17.906;2024-01-30T06:16:12;67.13;;;30.55;;
84500;SDS011;74725;44.210;17.906;2024-01-30T06:18:38;59.80;;;28.90;;
84500;SDS011;74725;44.210;17.906;2024-01-30T06:21:04;60.42;;;30.33;;
84500;SDS011;74725;44.210;17.906;2024-01-30T06:23:30;72.03;;;33.00;;
84500;SDS011;74725;44.210;17.906;2024-01-30T06:25:56;64.63;;;30.42;;
84500;SDS011;74725;44.210;17.906;2024-01-30T06:28:21;74.30;;;35.10;;
84500;SDS011;74725;44.210;17.906;2024-01-30T06:30:47;77.38;;;34.97;;
84500;SDS011;74725;44.210;17.906;2024-01-30T06:33:13;70.00;;;34.40;;
84500;SDS011;74725;44.210;17.906;2024-01-30T06:35:39;77.22;;;34.85;;
84500;SDS011;74725;44.210;17.906;2024-01-30T06:38:06;80.03;;;34.90;;
84500;SDS011;74725;44.210;17.906;2024-01-30T06:40:31;69.10;;;34.80;;
84500;SDS011;74725;44.210;17.906;2024-01-30T06:42:57;70.18;;;34.95;;
84500;SDS011;74725;44.210;17.906;2024-01-30T06:45:22;74.90;;;37.78;;
84500;SDS011;74725;44.210;17.906;2024-01-30T06:47:54;86.43;;;36.65;;
84500;SDS011;74725;44.210;17.906;2024-01-30T06:50:21;80.70;;;37.83;;
84500;SDS011;74725;44.210;17.906;2024-01-30T06:52:47;78.93;;;37.35;;
84500;SDS011;74725;44.210;17.906;2024-01-30T06:55:12;79.70;;;38.55;;
84500;SDS011;74725;44.210;17.906;2024-01-30T06:57:38;83.88;;;40.00;;
84500;SDS011;74725;44.210;17.906;2024-01-30T07:00:04;89.70;;;39.15;;
84500;SDS011;74725;44.210;17.906;2024-01-30T07:02:31;95.25;;;41.20;;
84500;SDS011;74725;44.210;17.906;2024-01-30T07:04:57;92.68;;;41.63;;
84500;SDS011;74725;44.210;17.906;2024-01-30T07:07:23;95.60;;;42.15;;
84500;SDS011;74725;44.210;17.906;2024-01-30T07:09:51;85.78;;;39.30;;
84500;SDS011;74725;44.210;17.906;2024-01-30T07:12:22;98.38;;;41.58;;
84500;SDS011;74725;44.210;17.906;2024-01-30T07:14:54;94.60;;;40.35;;
84500;SDS011;74725;44.210;17.906;2024-01-30T07:17:22;101.93;;;43.38;;
84500;SDS011;74725;44.210;17.906;2024-01-30T07:19:48;177.27;;;86.25;;
84500;SDS011;74725;44.210;17.906;2024-01-30T07:22:13;100.75;;;46.67;;
84500;SDS011;74725;44.210;17.906;2024-01-30T07:24:43;117.88;;;47.58;;
84500;SDS011;74725;44.210;17.906;2024-01-30T07:27:13;107.47;;;43.35;;
84500;SDS011;74725;44.210;17.906;2024-01-30T07:29:39;110.45;;;45.75;;
84500;SDS011;74725;44.210;17.906;2024-01-30T07:32:05;112.45;;;43.80;;
84500;SDS011;74725;44.210;17.906;2024-01-30T07:34:35;94.70;;;40.13;;
84500;SDS011;74725;44.210;17.906;2024-01-30T07:37:02;99.82;;;43.22;;
84500;SDS011;74725;44.210;17.906;2024-01-30T07:39:28;90.85;;;42.20;;
84500;SDS011;74725;44.210;17.906;2024-01-30T07:41:57;92.30;;;40.80;;
84500;SDS011;74725;44.210;17.906;2024-01-30T07:44:31;94.88;;;40.25;;
84500;SDS011;74725;44.210;17.906;2024-01-30T07:46:59;94.25;;;41.50;;
84500;SDS011;74725;44.210;17.906;2024-01-30T07:49:27;97.45;;;42.30;;
84500;SDS011;74725;44.210;17.906;2024-01-30T07:52:15;97.85;;;44.50;;
84500;SDS011;74725;44.210;17.906;2024-01-30T07:55:00;89.85;;;40.35;;
84500;SDS011;74725;44.210;17.906;2024-01-30T07:57:32;96.55;;;42.20;;
84500;SDS011;74725;44.210;17.906;2024-01-30T08:00:00;94.88;;;43.15;;
84500;SDS011;74725;44.210;17.906;2024-01-30T08:02:32;88.95;;;42.50;;
84500;SDS011;74725;44.210;17.906;2024-01-30T08:04:58;86.72;;;40.53;;
84500;SDS011;74725;44.210;17.906;2024-01-30T08:07:24;91.13;;;43.47;;
84500;SDS011;74725;44.210;17.906;2024-01-30T08:09:55;81.28;;;40.30;;
84500;SDS011;74725;44.210;17.906;2024-01-30T08:12:25;81.80;;;39.17;;
84500;SDS011;74725;44.210;17.906;2024-01-30T08:14:53;85.78;;;40.88;;
84500;SDS011;74725;44.210;17.906;2024-01-30T08:17:21;87.43;;;42.65;;
84500;SDS011;74725;44.210;17.906;2024-01-30T08:19:47;85.20;;;40.83;;
84500;SDS011;74725;44.210;17.906;2024-01-30T08:22:13;78.18;;;39.15;;
84500;SDS011;74725;44.210;17.906;2024-01-30T08:24:40;70.20;;;36.15;;
84500;SDS011;74725;44.210;17.906;2024-01-30T08:27:09;71.38;;;36.10;;
84500;SDS011;74725;44.210;17.906;2024-01-30T08:29:38;78.25;;;35.25;;
84500;SDS011;74725;44.210;17.906;2024-01-30T08:32:16;70.90;;;34.30;;
84500;SDS011;74725;44.210;17.906;2024-01-30T08:34:47;76.32;;;37.63;;
84500;SDS011;74725;44.210;17.906;2024-01-30T08:37:22;75.00;;;38.35;;
84500;SDS011;74725;44.210;17.906;2024-01-30T08:39:51;81.28;;;39.45;;
84500;SDS011;74725;44.210;17.906;2024-01-30T08:42:24;93.30;;;42.88;;
84500;SDS011;74725;44.210;17.906;2024-01-30T08:44:55;75.38;;;36.58;;
84500;SDS011;74725;44.210;17.906;2024-01-30T08:47:26;68.63;;;33.55;;
84500;SDS011;74725;44.210;17.906;2024-01-30T08:52:33;64.47;;;33.78;;
84500;SDS011;74725;44.210;17.906;2024-01-30T08:55:08;69.25;;;33.55;;
84500;SDS011;74725;44.210;17.906;2024-01-30T08:57:38;78.75;;;38.13;;
84500;SDS011;74725;44.210;17.906;2024-01-30T09:00:11;79.70;;;38.85;;
84500;SDS011;74725;44.210;17.906;2024-01-30T09:02:37;75.25;;;39.30;;
84500;SDS011;74725;44.210;17.906;2024-01-30T09:05:43;67.90;;;33.85;;
84500;SDS011;74725;44.210;17.906;2024-01-30T09:08:25;75.90;;;34.45;;
84500;SDS011;74725;44.210;17.906;2024-01-30T09:10:54;75.85;;;37.65;;
84500;SDS011;74725;44.210;17.906;2024-01-30T09:13:21;69.00;;;35.60;;
84500;SDS011;74725;44.210;17.906;2024-01-30T09:19:10;85.90;;;36.08;;
84500;SDS011;74725;44.210;17.906;2024-01-30T09:21:53;74.28;;;37.40;;
84500;SDS011;74725;44.210;17.906;2024-01-30T09:24:20;77.88;;;36.85;;
84500;SDS011;74725;44.210;17.906;2024-01-30T09:27:04;79.65;;;37.35;;
84500;SDS011;74725;44.210;17.906;2024-01-30T09:29:31;71.28;;;35.97;;
84500;SDS011;74725;44.210;17.906;2024-01-30T09:31:59;71.15;;;32.50;;
84500;SDS011;74725;44.210;17.906;2024-01-30T09:34:25;76.55;;;34.90;;
84500;SDS011;74725;44.210;17.906;2024-01-30T09:36:51;68.78;;;32.35;;
84500;SDS011;74725;44.210;17.906;2024-01-30T09:39:18;57.35;;;30.55;;
84500;SDS011;74725;44.210;17.906;2024-01-30T09:41:48;66.88;;;32.72;;
84500;SDS011;74725;44.210;17.906;2024-01-30T09:44:34;53.65;;;27.95;;
84500;SDS011;74725;44.210;17.906;2024-01-30T09:47:02;114.25;;;56.67;;
84500;SDS011;74725;44.210;17.906;2024-01-30T09:49:35;75.70;;;37.10;;
84500;SDS011;74725;44.210;17.906;2024-01-30T09:52:05;60.38;;;31.33;;
84500;SDS011;74725;44.210;17.906;2024-01-30T09:54:34;67.45;;;32.35;;
84500;SDS011;74725;44.210;17.906;2024-01-30T09:57:06;59.75;;;32.42;;
84500;SDS011;74725;44.210;17.906;2024-01-30T09:59:33;63.15;;;33.38;;
84500;SDS011;74725;44.210;17.906;2024-01-30T10:02:01;67.22;;;33.35;;
84500;SDS011;74725;44.210;17.906;2024-01-30T10:04:30;64.10;;;32.40;;
84500;SDS011;74725;44.210;17.906;2024-01-30T10:06:56;64.32;;;33.25;;
84500;SDS011;74725;44.210;17.906;2024-01-30T10:09:24;67.32;;;33.67;;
84500;SDS011;74725;44.210;17.906;2024-01-30T10:11:50;62.13;;;31.30;;
84500;SDS011;74725;44.210;17.906;2024-01-30T10:14:16;64.47;;;32.05;;
84500;SDS011;74725;44.210;17.906;2024-01-30T10:16:42;63.47;;;32.33;;
84500;SDS011;74725;44.210;17.906;2024-01-30T10:19:08;72.43;;;33.83;;
84500;SDS011;74725;44.210;17.906;2024-01-30T10:21:34;59.33;;;32.28;;
84500;SDS011;74725;44.210;17.906;2024-01-30T10:24:00;51.20;;;28.02;;
84500;SDS011;74725;44.210;17.906;2024-01-30T10:26:26;56.17;;;27.60;;
84500;SDS011;74725;44.210;17.906;2024-01-30T10:28:52;55.58;;;27.92;;
84500;SDS011;74725;44.210;17.906;2024-01-30T10:31:21;58.05;;;28.65;;
84500;SDS011;74725;44.210;17.906;2024-01-30T10:33:47;56.25;;;27.38;;
84500;SDS011;74725;44.210;17.906;2024-01-30T10:36:13;53.55;;;28.10;;
84500;SDS011;74725;44.210;17.906;2024-01-30T10:38:42;51.53;;;25.02;;
84500;SDS011;74725;44.210;17.906;2024-01-30T10:41:09;44.97;;;23.92;;
84500;SDS011;74725;44.210;17.906;2024-01-30T10:43:41;43.78;;;22.75;;
84500;SDS011;74725;44.210;17.906;2024-01-30T10:46:11;42.95;;;20.73;;
84500;SDS011;74725;44.210;17.906;2024-01-30T10:48:50;40.55;;;20.00;;
84500;SDS011;74725;44.210;17.906;2024-01-30T10:51:23;35.40;;;18.20;;
84500;SDS011;74725;44.210;17.906;2024-01-30T10:53:55;26.65;;;14.85;;
84500;SDS011;74725;44.210;17.906;2024-01-30T10:56:23;24.40;;;15.00;;
84500;SDS011;74725;44.210;17.906;2024-01-30T10:58:50;30.33;;;16.92;;
84500;SDS011;74725;44.210;17.906;2024-01-30T11:01:23;32.55;;;17.35;;
84500;SDS011;74725;44.210;17.906;2024-01-30T11:03:53;32.40;;;17.23;;
84500;SDS011;74725;44.210;17.906;2024-01-30T11:06:23;33.05;;;19.08;;
84500;SDS011;74725;44.210;17.906;2024-01-30T11:09:05;37.63;;;18.00;;
84500;SDS011;74725;44.210;17.906;2024-01-30T11:11:51;36.13;;;18.08;;
84500;SDS011;74725;44.210;17.906;2024-01-30T11:14:25;39.70;;;18.80;;
84500;SDS011;74725;44.210;17.906;2024-01-30T11:16:51;36.38;;;18.73;;
84500;SDS011;74725;44.210;17.906;2024-01-30T11:19:23;35.20;;;18.70;;
84500;SDS011;74725;44.210;17.906;2024-01-30T11:21:52;35.97;;;18.95;;
84500;SDS011;74725;44.210;17.906;2024-01-30T11:24:20;40.90;;;20.58;;
84500;SDS011;74725;44.210;17.906;2024-01-30T11:26:49;39.87;;;19.03;;
84500;SDS011;74725;44.210;17.906;2024-01-30T11:29:16;37.17;;;19.88;;
84500;SDS011;74725;44.210;17.906;2024-01-30T11:31:55;39.80;;;20.10;;
84500;SDS011;74725;44.210;17.906;2024-01-30T11:34:23;39.83;;;20.92;;
84500;SDS011;74725;44.210;17.906;2024-01-30T11:36:53;41.70;;;21.77;;
84500;SDS011;74725;44.210;17.906;2024-01-30T11:39:31;31.65;;;17.80;;
84500;SDS011;74725;44.210;17.906;2024-01-30T11:41:58;29.25;;;16.08;;
84500;SDS011;74725;44.210;17.906;2024-01-30T11:44:24;34.35;;;17.70;;
84500;SDS011;74725;44.210;17.906;2024-01-30T11:46:51;35.75;;;18.15;;
84500;SDS011;74725;44.210;17.906;2024-01-30T11:49:17;32.80;;;19.13;;
84500;SDS011;74725;44.210;17.906;2024-01-30T11:51:45;35.17;;;20.35;;
84500;SDS011;74725;44.210;17.906;2024-01-30T11:54:11;34.55;;;18.60;;
84500;SDS011;74725;44.210;17.906;2024-01-30T11:56:37;39.70;;;19.80;;
84500;SDS011;74725;44.210;17.906;2024-01-30T11:59:04;40.20;;;18.83;;
84500;SDS011;74725;44.210;17.906;2024-01-30T12:01:31;37.80;;;19.60;;
84500;SDS011;74725;44.210;17.906;2024-01-30T12:03:58;35.20;;;18.98;;
84500;SDS011;74725;44.210;17.906;2024-01-30T12:06:24;36.33;;;19.27;;
84500;SDS011;74725;44.210;17.906;2024-01-30T12:09:00;39.42;;;19.83;;
84500;SDS011;74725;44.210;17.906;2024-01-30T12:11:43;40.70;;;19.88;;
84500;SDS011;74725;44.210;17.906;2024-01-30T12:14:13;42.13;;;18.85;;
84500;SDS011;74725;44.210;17.906;2024-01-30T12:16:49;42.92;;;21.38;;
84500;SDS011;74725;44.210;17.906;2024-01-30T12:19:49;31.55;;;18.52;;
84500;SDS011;74725;44.210;17.906;2024-01-30T12:22:11;31.63;;;16.15;;
84500;SDS011;74725;44.210;17.906;2024-01-30T12:24:37;34.92;;;19.50;;
84500;SDS011;74725;44.210;17.906;2024-01-30T12:27:06;34.55;;;19.40;;
84500;SDS011;74725;44.210;17.906;2024-01-30T12:29:41;39.28;;;19.90;;
84500;SDS011;74725;44.210;17.906;2024-01-30T12:32:17;30.20;;;16.63;;
84500;SDS011;74725;44.210;17.906;2024-01-30T12:34:47;31.40;;;18.27;;
84500;SDS011;74725;44.210;17.906;2024-01-30T12:37:36;31.42;;;17.65;;
84500;SDS011;74725;44.210;17.906;2024-01-30T12:40:04;30.55;;;18.02;;
84500;SDS011;74725;44.210;17.906;2024-01-30T12:42:37;28.55;;;17.15;;
84500;SDS011;74725;44.210;17.906;2024-01-30T12:45:05;35.47;;;17.98;;
84500;SDS011;74725;44.210;17.906;2024-01-30T12:47:33;28.63;;;16.27;;
84500;SDS011;74725;44.210;17.906;2024-01-30T12:50:21;26.85;;;15.73;;
84500;SDS011;74725;44.210;17.906;2024-01-30T12:53:16;30.30;;;16.77;;
84500;SDS011;74725;44.210;17.906;2024-01-30T12:55:41;30.88;;;16.63;;
84500;SDS011;74725;44.210;17.906;2024-01-30T12:58:07;26.83;;;16.10;;
84500;SDS011;74725;44.210;17.906;2024-01-30T13:00:35;30.58;;;17.80;;
84500;SDS011;74725;44.210;17.906;2024-01-30T13:03:01;25.50;;;15.80;;
84500;SDS011;74725;44.210;17.906;2024-01-30T13:05:29;24.67;;;14.15;;
84500;SDS011;74725;44.210;17.906;2024-01-30T13:07:55;28.40;;;14.88;;
84500;SDS011;74725;44.210;17.906;2024-01-30T13:10:22;30.25;;;16.75;;
84500;SDS011;74725;44.210;17.906;2024-01-30T13:12:48;36.72;;;19.23;;
84500;SDS011;74725;44.210;17.906;2024-01-30T13:15:13;34.65;;;18.58;;
84500;SDS011;74725;44.210;17.906;2024-01-30T13:17:40;28.45;;;16.48;;
84500;SDS011;74725;44.210;17.906;2024-01-30T13:20:07;32.22;;;16.05;;
84500;SDS011;74725;44.210;17.906;2024-01-30T13:22:33;28.08;;;15.35;;
84500;SDS011;74725;44.210;17.906;2024-01-30T13:24:59;31.13;;;15.77;;
84500;SDS011;74725;44.210;17.906;2024-01-30T13:27:25;24.33;;;15.13;;
84500;SDS011;74725;44.210;17.906;2024-01-30T13:29:50;30.27;;;16.17;;
84500;SDS011;74725;44.210;17.906;2024-01-30T13:32:16;31.55;;;16.55;;
84500;SDS011;74725;44.210;17.906;2024-01-30T13:34:45;29.15;;;16.80;;
84500;SDS011;74725;44.210;17.906;2024-01-30T13:37:10;27.70;;;15.05;;
84500;SDS011;74725;44.210;17.906;2024-01-30T13:39:36;27.98;;;15.25;;
84500;SDS011;74725;44.210;17.906;2024-01-30T13:42:01;27.23;;;14.52;;
84500;SDS011;74725;44.210;17.906;2024-01-30T13:44:28;31.38;;;15.43;;
84500;SDS011;74725;44.210;17.906;2024-01-30T13:46:53;35.40;;;17.45;;
84500;SDS011;74725;44.210;17.906;2024-01-30T13:49:20;52.05;;;22.55;;
84500;SDS011;74725;44.210;17.906;2024-01-30T13:51:45;40.13;;;22.20;;
84500;SDS011;74725;44.210;17.906;2024-01-30T13:54:11;38.83;;;19.98;;
84500;SDS011;74725;44.210;17.906;2024-01-30T13:56:39;38.35;;;20.38;;
84500;SDS011;74725;44.210;17.906;2024-01-30T13:59:05;45.45;;;24.38;;
84500;SDS011;74725;44.210;17.906;2024-01-30T14:01:31;85.80;;;33.33;;
84500;SDS011;74725;44.210;17.906;2024-01-30T14:03:57;46.30;;;23.90;;
84500;SDS011;74725;44.210;17.906;2024-01-30T14:06:22;43.95;;;21.20;;
84500;SDS011;74725;44.210;17.906;2024-01-30T14:08:48;38.15;;;19.90;;
84500;SDS011;74725;44.210;17.906;2024-01-30T14:11:15;41.17;;;21.65;;
84500;SDS011;74725;44.210;17.906;2024-01-30T14:13:41;43.80;;;21.67;;
84500;SDS011;74725;44.210;17.906;2024-01-30T14:16:06;41.03;;;21.52;;
84500;SDS011;74725;44.210;17.906;2024-01-30T14:18:32;44.85;;;22.20;;
84500;SDS011;74725;44.210;17.906;2024-01-30T14:20:58;43.75;;;21.25;;
84500;SDS011;74725;44.210;17.906;2024-01-30T14:23:24;46.88;;;23.60;;
84500;SDS011;74725;44.210;17.906;2024-01-30T14:28:19;49.80;;;23.33;;
84500;SDS011;74725;44.210;17.906;2024-01-30T14:30:45;56.88;;;26.65;;
84500;SDS011;74725;44.210;17.906;2024-01-30T14:33:10;71.88;;;29.70;;
84500;SDS011;74725;44.210;17.906;2024-01-30T14:35:36;64.32;;;31.17;;
84500;SDS011;74725;44.210;17.906;2024-01-30T14:38:02;92.15;;;41.15;;
84500;SDS011;74725;44.210;17.906;2024-01-30T14:40:30;108.18;;;47.85;;
84500;SDS011;74725;44.210;17.906;2024-01-30T14:42:56;118.57;;;52.80;;
84500;SDS011;74725;44.210;17.906;2024-01-30T14:45:21;101.15;;;46.85;;
84500;SDS011;74725;44.210;17.906;2024-01-30T14:47:47;111.43;;;47.55;;
84500;SDS011;74725;44.210;17.906;2024-01-30T14:50:22;112.38;;;48.15;;
84500;SDS011;74725;44.210;17.906;2024-01-30T14:52:47;108.75;;;50.30;;
84500;SDS011;74725;44.210;17.906;2024-01-30T14:55:13;103.93;;;49.78;;
84500;SDS011;74725;44.210;17.906;2024-01-30T14:57:38;105.57;;;49.05;;
84500;SDS011;74725;44.210;17.906;2024-01-30T15:00:07;99.78;;;50.42;;
84500;SDS011;74725;44.210;17.906;2024-01-30T15:43:04;77.60;;;40.60;;
84500;SDS011;74725;44.210;17.906;2024-01-30T15:45:29;71.93;;;39.85;;
84500;SDS011;74725;44.210;17.906;2024-01-30T15:47:56;77.25;;;38.55;;
84500;SDS011;74725;44.210;17.906;2024-01-30T15:50:23;90.22;;;39.67;;
84500;SDS011;74725;44.210;17.906;2024-01-30T16:33:18;96.93;;;41.83;;
84500;SDS011;74725;44.210;17.906;2024-01-30T16:35:43;79.55;;;39.03;;
84500;SDS011;74725;44.210;17.906;2024-01-30T16:38:09;86.68;;;40.95;;
84500;SDS011;74725;44.210;17.906;2024-01-30T16:40:34;93.53;;;43.25;;
84500;SDS011;74725;44.210;17.906;2024-01-30T17:15:24;104.10;;;48.30;;
84500;SDS011;74725;44.210;17.906;2024-01-30T17:17:49;98.47;;;45.67;;
84500;SDS011;74725;44.210;17.906;2024-01-30T17:20:15;96.72;;;47.03;;
84500;SDS011;74725;44.210;17.906;2024-01-30T17:25:22;106.03;;;47.63;;
84500;SDS011;74725;44.210;17.906;2024-01-30T17:27:47;101.80;;;47.20;;
84500;SDS011;74725;44.210;17.906;2024-01-30T17:30:19;101.78;;;48.75;;
84500;SDS011;74725;44.210;17.906;2024-01-30T17:43:33;114.15;;;53.42;;
84500;SDS011;74725;44.210;17.906;2024-01-30T17:45:58;131.40;;;56.08;;
84500;SDS011;74725;44.210;17.906;2024-01-30T17:48:25;133.25;;;62.10;;
84500;SDS011;74725;44.210;17.906;2024-01-30T17:50:50;142.45;;;58.08;;
84500;SDS011;74725;44.210;17.906;2024-01-30T17:55:58;129.35;;;58.45;;
84500;SDS011;74725;44.210;17.906;2024-01-30T17:58:30;121.78;;;55.15;;
84500;SDS011;74725;44.210;17.906;2024-01-30T18:00:56;124.95;;;55.85;;
84500;SDS011;74725;44.210;17.906;2024-01-30T18:06:04;129.68;;;59.10;;
84500;SDS011;74725;44.210;17.906;2024-01-30T18:08:31;131.27;;;56.38;;
84500;SDS011;74725;44.210;17.906;2024-01-30T18:10:57;135.38;;;61.25;;
84500;SDS011;74725;44.210;17.906;2024-01-30T18:56:35;146.93;;;64.40;;
84500;SDS011;74725;44.210;17.906;2024-01-30T18:59:00;141.13;;;60.08;;
84500;SDS011;74725;44.210;17.906;2024-01-30T19:01:26;131.85;;;58.90;;
84500;SDS011;74725;44.210;17.906;2024-01-30T20:07:07;139.93;;;61.15;;
84500;SDS011;74725;44.210;17.906;2024-01-30T20:09:33;141.82;;;62.05;;
84500;SDS011;74725;44.210;17.906;2024-01-30T20:36:16;139.20;;;63.67;;
84500;SDS011;74725;44.210;17.906;2024-01-30T20:38:43;132.55;;;60.53;;
84500;SDS011;74725;44.210;17.906;2024-01-30T20:41:10;129.35;;;56.30;;
84500;SDS011;74725;44.210;17.906;2024-01-30T23:50:12;110.30;;;49.15;;
